createdAt,value
2023-05-05T00:03:29.983Z,7.63
2023-05-05T00:08:29.890Z,7.63
2023-05-05T00:13:29.879Z,7.57
2023-05-05T00:18:29.886Z,7.55
2023-05-05T00:23:29.873Z,7.48
2023-05-05T00:28:29.874Z,7.39
2023-05-05T00:33:29.873Z,7.3
2023-05-05T00:38:29.889Z,7.21
2023-05-05T00:43:29.865Z,7.15
2023-05-05T00:48:29.867Z,7.06
2023-05-05T00:53:29.885Z,7
2023-05-05T00:58:29.851Z,6.98
2023-05-05T01:03:29.920Z,6.96
2023-05-05T01:08:29.861Z,7
2023-05-05T01:13:29.873Z,6.98
2023-05-05T01:18:29.858Z,6.87
2023-05-05T01:23:29.841Z,6.78
2023-05-05T01:28:29.846Z,6.72
2023-05-05T01:33:29.812Z,6.63
2023-05-05T01:38:29.815Z,6.63
2023-05-05T01:43:29.829Z,6.59
2023-05-05T01:48:29.818Z,6.51
2023-05-05T01:53:29.801Z,6.48
2023-05-05T01:58:29.798Z,6.44
2023-05-05T02:03:29.839Z,6.42
2023-05-05T02:08:29.793Z,6.35
2023-05-05T02:13:29.801Z,6.27
2023-05-05T02:18:29.789Z,6.22
2023-05-05T02:23:29.796Z,6.18
2023-05-05T02:28:29.773Z,6.14
2023-05-05T02:33:29.774Z,6.15
2023-05-05T02:38:29.778Z,6.06
2023-05-05T02:43:29.785Z,6.05
2023-05-05T02:48:29.799Z,6.05
2023-05-05T02:53:29.770Z,6.05
2023-05-05T02:58:29.768Z,6.03
2023-05-05T03:03:29.843Z,6
2023-05-05T03:08:29.759Z,6.04
2023-05-05T03:13:29.720Z,5.99
2023-05-05T03:18:29.766Z,5.94
2023-05-05T03:23:29.740Z,5.91
2023-05-05T03:28:29.737Z,5.86
2023-05-05T03:33:29.747Z,5.83
2023-05-05T03:38:29.730Z,5.82
2023-05-05T03:43:29.710Z,5.82
2023-05-05T03:48:29.838Z,5.86
2023-05-05T03:53:29.722Z,5.87
2023-05-05T03:58:29.732Z,5.87
2023-05-05T04:03:29.773Z,5.9
2023-05-05T04:08:29.709Z,6.02
2023-05-05T04:13:29.710Z,6.12
2023-05-05T04:18:29.696Z,6.23
2023-05-05T04:23:29.682Z,6.41
2023-05-05T04:28:29.681Z,6.65
2023-05-05T04:33:29.684Z,6.98
2023-05-05T04:38:29.708Z,7.3
2023-05-05T04:43:29.677Z,7.8
2023-05-05T04:48:29.665Z,8.12
2023-05-05T04:53:29.660Z,8.39
2023-05-05T04:58:29.695Z,8.69
2023-05-05T05:03:29.738Z,9.16
2023-05-05T05:08:29.670Z,9.82
2023-05-05T05:13:29.640Z,10.38
2023-05-05T05:18:29.618Z,10.73
2023-05-05T05:23:29.636Z,11.26
2023-05-05T05:28:29.624Z,11.65
2023-05-05T05:33:29.623Z,12.12
2023-05-05T05:38:29.629Z,12.68
2023-05-05T05:43:29.632Z,13.3
2023-05-05T05:48:29.630Z,13.9
2023-05-05T05:53:29.615Z,14.5
2023-05-05T05:58:29.575Z,15.2
2023-05-05T06:03:29.617Z,16.1
2023-05-05T06:08:29.578Z,16.34
2023-05-05T06:13:29.593Z,15.99
2023-05-05T06:18:29.587Z,16.51
2023-05-05T06:23:29.573Z,17.07
2023-05-05T06:28:29.550Z,17.26
2023-05-05T06:33:29.549Z,17.5
2023-05-05T06:38:29.560Z,17.74
2023-05-05T06:43:29.525Z,18.22
2023-05-05T06:48:29.522Z,18.9
2023-05-05T06:53:29.530Z,19.42
2023-05-05T06:58:29.528Z,19.59
2023-05-05T07:03:29.515Z,19.62
2023-05-05T07:08:29.510Z,19.83
2023-05-05T07:13:29.498Z,19.67
2023-05-05T07:18:29.509Z,19.92
2023-05-05T07:23:29.486Z,19.75
2023-05-05T07:28:29.491Z,19.88
2023-05-05T07:33:29.493Z,20.13
2023-05-05T07:38:29.482Z,20.43
2023-05-05T07:43:29.463Z,20.53
2023-05-05T07:48:29.455Z,20.67
2023-05-05T07:53:29.449Z,20.82
2023-05-05T08:03:29.512Z,21.37
2023-05-05T08:08:29.422Z,21.01
2023-05-05T08:13:29.423Z,20.44
2023-05-05T08:18:29.410Z,20.23
2023-05-05T08:23:29.407Z,20.29
2023-05-05T08:33:29.382Z,20.27
2023-05-05T08:38:29.391Z,20.5
2023-05-05T08:43:29.396Z,20.52
2023-05-05T08:48:29.385Z,20.5
2023-05-05T08:58:29.338Z,20.71
2023-05-05T09:03:29.374Z,20.98
2023-05-05T09:08:29.366Z,20.98
2023-05-05T09:13:29.333Z,21.15
2023-05-05T09:33:29.324Z,21.5
2023-05-05T09:38:29.291Z,21.58
2023-05-05T09:43:29.302Z,21.85
2023-05-05T09:48:29.373Z,21.89
2023-05-05T10:58:29.207Z,23.38
2023-05-05T11:03:29.198Z,23.53
2023-05-05T11:18:29.163Z,23.41
2023-05-05T11:23:29.157Z,23.47
2023-05-05T11:48:29.155Z,23.84
2023-05-05T11:53:29.120Z,23.83
2023-05-05T12:08:29.099Z,23.91
2023-05-05T12:28:29.073Z,24.02
2023-05-05T12:33:29.064Z,24.21
2023-05-05T12:53:29.053Z,24.36
2023-05-05T12:58:29.049Z,24.33
2023-05-05T13:03:29.122Z,24.51
2023-05-05T13:08:29.036Z,24.54
2023-05-05T13:13:29.015Z,24.25
2023-05-05T13:18:29.022Z,24.23
2023-05-05T13:23:29.010Z,24.52
2023-05-05T13:28:29.016Z,24.82
2023-05-05T13:33:28.985Z,24.92
2023-05-05T13:38:28.973Z,24.92
2023-05-05T13:43:29.014Z,24.95
2023-05-05T13:48:28.962Z,24.99
2023-05-05T13:53:28.984Z,25.3
2023-05-05T13:58:28.947Z,25.39
2023-05-05T14:03:28.945Z,25.13
2023-05-05T14:08:28.941Z,24.91
2023-05-05T14:13:28.954Z,25.05
2023-05-05T14:18:28.974Z,24.95
2023-05-05T14:23:28.954Z,25.07
2023-05-05T14:28:28.920Z,24.75
2023-05-05T14:33:28.916Z,24.69
2023-05-05T14:38:28.925Z,24.77
2023-05-05T14:43:28.897Z,24.42
2023-05-05T14:48:28.910Z,24.3
2023-05-05T14:53:28.908Z,24.21
2023-05-05T14:58:28.879Z,24.23
2023-05-05T15:03:28.936Z,24.13
2023-05-05T15:08:28.886Z,23.84
2023-05-05T15:13:28.878Z,23.73
2023-05-05T15:18:28.867Z,23.57
2023-05-05T15:23:28.853Z,23.53
2023-05-05T15:28:28.850Z,23.37
2023-05-05T15:33:28.847Z,23.3
2023-05-05T15:38:28.833Z,23.27
2023-05-05T15:43:28.814Z,23.3
2023-05-05T15:48:28.809Z,23.21
2023-05-05T15:53:28.847Z,23.21
2023-05-05T15:58:28.796Z,23.01
2023-05-05T16:03:29.057Z,22.84
2023-05-05T16:08:28.773Z,22.64
2023-05-05T16:13:28.778Z,22.41
2023-05-05T16:18:28.753Z,22.2
2023-05-05T16:23:28.752Z,22.03
2023-05-05T16:28:28.738Z,21.94
2023-05-05T16:33:28.789Z,21.99
2023-05-05T16:38:28.745Z,22
2023-05-05T16:43:28.729Z,21.99
2023-05-05T16:48:28.746Z,21.87
2023-05-05T16:53:28.719Z,21.73
2023-05-05T16:58:28.702Z,21.65
2023-05-05T17:03:28.741Z,21.51
2023-05-05T17:08:28.707Z,21.34
2023-05-05T17:13:28.691Z,21.2
2023-05-05T17:18:28.699Z,21.07
2023-05-05T17:23:28.679Z,20.98
2023-05-05T17:28:28.671Z,20.75
2023-05-05T17:33:28.692Z,20.51
2023-05-05T17:38:28.654Z,20.34
2023-05-05T17:43:28.652Z,20.16
2023-05-05T17:48:28.703Z,19.93
2023-05-05T17:53:28.676Z,19.74
2023-05-05T17:58:28.644Z,19.55
2023-05-05T18:03:28.761Z,19.31
2023-05-05T18:08:28.626Z,19.12
2023-05-05T18:13:28.617Z,18.86
2023-05-05T18:18:28.642Z,18.66
2023-05-05T18:23:28.622Z,18.45
2023-05-05T18:28:28.585Z,18.24
2023-05-05T18:33:28.605Z,18.11
2023-05-05T18:38:28.608Z,17.92
2023-05-05T18:43:28.581Z,17.75
2023-05-05T18:48:28.572Z,17.54
2023-05-05T18:53:28.562Z,17.37
2023-05-05T18:58:28.544Z,17.26
2023-05-05T19:03:28.536Z,17.15
2023-05-05T19:08:28.540Z,17.07
2023-05-05T19:13:28.536Z,17.08
2023-05-05T19:18:28.543Z,17.02
2023-05-05T19:23:28.533Z,16.94
2023-05-05T19:28:28.503Z,16.94
2023-05-05T19:33:28.508Z,16.88
2023-05-05T19:38:28.495Z,16.96
2023-05-05T19:43:28.487Z,16.72
2023-05-05T19:48:28.498Z,14.74
2023-05-05T19:53:28.472Z,13.06
2023-05-05T19:58:28.468Z,12.56
2023-05-05T20:03:28.545Z,12.17
2023-05-05T20:08:28.483Z,11.85
2023-05-05T20:13:28.467Z,11.76
2023-05-05T20:18:28.454Z,11.69
2023-05-05T20:23:28.449Z,11.69
2023-05-05T20:28:28.463Z,11.73
2023-05-05T20:33:28.429Z,11.74
2023-05-05T20:38:28.446Z,11.76
2023-05-05T20:43:28.441Z,11.75
2023-05-05T20:48:28.427Z,11.75
2023-05-05T20:53:28.419Z,11.77
2023-05-05T20:58:28.419Z,11.76
2023-05-05T21:03:28.460Z,11.82
2023-05-05T21:08:28.415Z,11.86
2023-05-05T21:13:28.390Z,11.88
2023-05-05T21:18:28.405Z,11.9
2023-05-05T21:23:28.384Z,11.88
2023-05-05T21:28:28.389Z,11.82
2023-05-05T21:33:28.409Z,11.79
2023-05-05T21:38:28.364Z,11.77
2023-05-05T21:43:28.359Z,11.74
2023-05-05T21:48:28.344Z,11.7
2023-05-05T21:53:28.345Z,11.68
2023-05-05T21:58:28.348Z,11.71
2023-05-05T22:03:28.501Z,11.7
2023-05-05T22:08:28.368Z,11.65
2023-05-05T22:13:28.328Z,11.65
2023-05-05T22:18:28.335Z,11.65
2023-05-05T22:23:28.319Z,11.65
2023-05-05T22:33:28.313Z,11.65
2023-05-05T22:48:28.284Z,11.54
2023-05-05T22:53:28.294Z,11.55
2023-05-05T22:58:28.287Z,11.54
2023-05-05T23:08:28.267Z,11.58
2023-05-05T23:13:28.247Z,11.58
2023-05-05T23:18:28.312Z,11.59
2023-05-05T23:23:28.247Z,11.59
2023-05-05T23:28:28.266Z,11.54
2023-05-05T23:33:28.242Z,11.52
2023-05-05T23:43:28.237Z,11.51
2023-05-05T23:48:28.226Z,11.43
2023-05-05T23:53:28.207Z,11.31
2023-05-05T23:58:28.214Z,11.18
